createdAt,value
2023-01-20T00:01:49.069Z,64.40
2023-01-20T00:04:20.062Z,62.83
2023-01-20T00:06:48.156Z,66.03
2023-01-20T00:09:18.517Z,63.80
2023-01-20T00:11:47.075Z,63.37
2023-01-20T00:14:16.699Z,71.50
2023-01-20T00:16:44.633Z,62.93
2023-01-20T00:19:15.748Z,66.00
2023-01-20T00:21:44.251Z,58.53
2023-01-20T00:24:12.091Z,64.67
2023-01-20T00:26:40.244Z,56.40
2023-01-20T00:29:12.738Z,66.63
2023-01-20T00:31:40.531Z,65.73
2023-01-20T00:34:11.176Z,69.73
2023-01-20T00:36:38.982Z,73.50
2023-01-20T00:39:07.026Z,69.80
2023-01-20T00:41:34.827Z,61.77
2023-01-20T00:44:02.616Z,66.53
2023-01-20T00:46:30.546Z,67.13
2023-01-20T00:48:58.374Z,77.03
2023-01-20T00:51:25.960Z,77.13
2023-01-20T00:53:54.102Z,72.20
2023-01-20T00:56:21.879Z,80.97
2023-01-20T00:58:50.026Z,80.97
2023-01-20T01:01:17.958Z,62.30
2023-01-20T01:03:46.131Z,69.17
2023-01-20T01:06:18.567Z,86.63
2023-01-20T01:08:46.958Z,72.03
2023-01-20T01:11:15.258Z,77.70
2023-01-20T01:13:43.987Z,79.37
2023-01-20T01:16:16.687Z,72.23
2023-01-20T01:18:44.738Z,68.63
2023-01-20T01:21:17.257Z,74.67
2023-01-20T01:23:45.826Z,72.77
2023-01-20T01:26:14.465Z,73.50
2023-01-20T01:28:42.561Z,67.37
2023-01-20T01:31:11.191Z,72.60
2023-01-20T01:33:39.159Z,69.20
2023-01-20T01:36:13.769Z,74.50
2023-01-20T01:38:42.000Z,67.27
2023-01-20T01:41:17.232Z,63.63
2023-01-20T01:44:13.955Z,71.37
2023-01-20T01:46:43.613Z,59.03
2023-01-20T01:49:30.078Z,66.07
2023-01-20T01:52:09.548Z,67.27
2023-01-20T01:54:45.650Z,68.57
2023-01-20T01:57:13.818Z,52.03
2023-01-20T01:59:44.132Z,48.10
2023-01-20T02:02:11.988Z,55.87
2023-01-20T02:04:43.386Z,62.27
2023-01-20T02:07:21.158Z,61.80
2023-01-20T02:09:48.906Z,51.70
2023-01-20T02:12:22.876Z,65.83
2023-01-20T02:14:59.750Z,57.10
2023-01-20T02:17:54.088Z,48.07
2023-01-20T02:21:05.677Z,51.70
2023-01-20T02:24:41.146Z,64.03
2023-01-20T02:28:12.674Z,51.60
2023-01-20T02:31:27.693Z,56.50
2023-01-20T02:34:52.514Z,58.13
2023-01-20T02:37:30.419Z,62.97
2023-01-20T02:40:40.160Z,64.93
2023-01-20T02:43:44.975Z,58.50
2023-01-20T02:46:33.376Z,62.10
2023-01-20T02:49:32.991Z,54.57
2023-01-20T02:52:27.139Z,57.77
2023-01-20T02:55:06.422Z,58.80
2023-01-20T02:57:58.833Z,59.27
2023-01-20T03:00:54.065Z,57.60
2023-01-20T03:03:36.904Z,72.97
2023-01-20T03:06:23.291Z,59.87
2023-01-20T03:08:56.495Z,56.30
2023-01-20T03:11:24.619Z,58.47
2023-01-20T03:14:06.643Z,64.10
2023-01-20T03:16:35.177Z,60.30
2023-01-20T03:19:03.557Z,61.33
2023-01-20T03:21:32.909Z,65.63
2023-01-20T03:24:07.139Z,67.57
2023-01-20T03:26:35.245Z,66.03
2023-01-20T03:29:12.759Z,49.70
2023-01-20T03:31:52.444Z,62.70
2023-01-20T03:34:26.293Z,63.63
2023-01-20T03:36:56.642Z,57.63
2023-01-20T03:39:26.463Z,51.10
2023-01-20T03:42:29.494Z,57.97
2023-01-20T03:45:52.934Z,53.13
2023-01-20T03:48:58.296Z,71.93
2023-01-20T03:51:46.881Z,47.30
2023-01-20T03:54:28.278Z,45.07
2023-01-20T03:57:26.348Z,39.00
2023-01-20T03:59:55.912Z,48.87
2023-01-20T04:02:28.498Z,49.63
2023-01-20T04:05:01.973Z,48.73
2023-01-20T04:07:33.399Z,50.57
2023-01-20T04:10:17.856Z,52.27
2023-01-20T04:12:45.750Z,53.33
2023-01-20T04:15:14.780Z,53.93
2023-01-20T04:17:42.968Z,53.07
2023-01-20T04:20:16.058Z,52.13
2023-01-20T04:22:59.357Z,51.20
2023-01-20T04:25:33.578Z,73.13
2023-01-20T04:28:01.430Z,44.13
2023-01-20T04:30:29.182Z,46.97
2023-01-20T04:32:56.993Z,48.30
2023-01-20T04:35:24.909Z,48.70
2023-01-20T04:37:52.778Z,46.70
2023-01-20T04:40:20.679Z,46.43
2023-01-20T04:42:48.328Z,43.20
2023-01-20T04:45:17.856Z,39.80
2023-01-20T04:47:45.712Z,40.33
2023-01-20T04:50:15.395Z,36.87
2023-01-20T04:52:44.142Z,41.00
2023-01-20T04:55:13.170Z,38.23
2023-01-20T04:57:42.021Z,40.33
2023-01-20T05:00:12.578Z,36.00
2023-01-20T05:02:40.652Z,41.20
2023-01-20T05:05:09.643Z,40.93
2023-01-20T05:07:37.500Z,39.90
2023-01-20T05:10:06.513Z,33.67
2023-01-20T05:12:34.506Z,36.20
2023-01-20T05:15:02.484Z,43.07
2023-01-20T05:17:30.320Z,44.83
2023-01-20T05:19:58.115Z,37.73
2023-01-20T05:22:25.885Z,37.77
2023-01-20T05:24:53.895Z,45.10
2023-01-20T05:27:21.507Z,40.67
2023-01-20T05:29:49.149Z,38.23
2023-01-20T05:32:16.888Z,41.30
2023-01-20T05:34:44.627Z,38.03
2023-01-20T05:37:12.323Z,39.23
2023-01-20T05:39:40.080Z,37.13
2023-01-20T05:42:07.774Z,38.70
2023-01-20T05:44:36.171Z,33.47
2023-01-20T05:47:04.148Z,36.10
2023-01-20T05:49:31.872Z,44.83
2023-01-20T05:51:59.650Z,35.50
2023-01-20T05:54:27.472Z,32.47
2023-01-20T05:56:55.408Z,41.10
2023-01-20T05:59:24.735Z,31.73
2023-01-20T06:01:52.566Z,34.57
2023-01-20T06:04:20.361Z,36.17
2023-01-20T06:06:48.164Z,31.73
2023-01-20T06:09:16.053Z,30.23
2023-01-20T06:11:43.776Z,35.50
2023-01-20T06:14:12.052Z,31.40
2023-01-20T06:16:39.661Z,29.37
2023-01-20T06:19:07.287Z,36.00
2023-01-20T06:21:34.957Z,33.40
2023-01-20T06:24:02.635Z,34.10
2023-01-20T06:26:30.517Z,42.20
2023-01-20T06:29:01.696Z,34.03
2023-01-20T06:31:29.486Z,42.83
2023-01-20T06:33:57.310Z,36.10
2023-01-20T06:36:25.456Z,38.37
2023-01-20T06:38:53.853Z,37.77
2023-01-20T06:41:22.309Z,33.00
2023-01-20T06:43:51.846Z,36.63
2023-01-20T06:46:19.593Z,38.37
2023-01-20T06:48:47.627Z,39.67
2023-01-20T06:51:21.273Z,41.90
2023-01-20T06:53:49.187Z,41.53
2023-01-20T06:56:16.993Z,39.90
2023-01-20T06:58:45.280Z,54.37
2023-01-20T07:01:26.568Z,38.27
2023-01-20T07:03:55.319Z,45.33
2023-01-20T07:06:38.881Z,40.90
2023-01-20T07:09:12.928Z,43.70
2023-01-20T07:11:41.285Z,43.33
2023-01-20T07:14:10.130Z,42.83
2023-01-20T07:16:38.009Z,42.70
2023-01-20T07:19:05.999Z,40.40
2023-01-20T07:21:33.820Z,42.47
2023-01-20T07:24:02.790Z,44.40
2023-01-20T07:26:31.219Z,44.67
2023-01-20T07:29:00.622Z,45.00
2023-01-20T07:31:31.869Z,48.93
2023-01-20T07:34:00.222Z,46.23
2023-01-20T07:36:28.373Z,42.20
2023-01-20T07:38:56.079Z,46.53
2023-01-20T07:41:24.301Z,44.30
2023-01-20T07:43:54.788Z,40.60
2023-01-20T07:46:23.866Z,40.40
2023-01-20T07:48:51.450Z,41.77
2023-01-20T07:51:19.801Z,42.20
2023-01-20T07:53:52.130Z,43.90
2023-01-20T07:56:28.233Z,48.90
2023-01-20T07:58:56.816Z,47.50
2023-01-20T08:01:32.917Z,44.43
2023-01-20T08:04:01.880Z,38.23
2023-01-20T08:06:30.574Z,39.73
2023-01-20T08:09:02.442Z,41.67
2023-01-20T08:11:32.377Z,33.50
2023-01-20T08:14:09.246Z,38.73
2023-01-20T08:16:37.148Z,27.30
2023-01-20T08:19:05.261Z,29.93
2023-01-20T08:21:34.390Z,27.80
2023-01-20T08:24:06.780Z,27.63
2023-01-20T08:26:35.454Z,30.13
2023-01-20T08:29:10.286Z,29.40
2023-01-20T08:31:38.885Z,29.07
2023-01-20T08:34:06.828Z,30.17
2023-01-20T08:36:40.076Z,29.40
2023-01-20T08:39:14.349Z,27.53
2023-01-20T08:41:45.288Z,28.40
2023-01-20T08:44:15.293Z,30.23
2023-01-20T08:46:45.737Z,27.90
2023-01-20T08:49:18.188Z,36.13
2023-01-20T08:51:45.979Z,33.20
2023-01-20T08:54:15.431Z,30.60
2023-01-20T08:56:43.510Z,36.47
2023-01-20T08:59:12.472Z,33.23
2023-01-20T09:01:42.273Z,31.50
2023-01-20T09:04:10.702Z,33.80
2023-01-20T09:06:48.723Z,35.03
2023-01-20T09:09:22.161Z,33.23
2023-01-20T09:11:52.796Z,34.40
2023-01-20T09:14:24.867Z,31.67
2023-01-20T09:16:52.998Z,36.63
2023-01-20T09:19:20.769Z,29.77
2023-01-20T09:21:48.599Z,34.70
2023-01-20T09:24:16.339Z,32.07
2023-01-20T09:26:44.966Z,33.23
2023-01-20T09:29:20.034Z,34.43
2023-01-20T09:31:59.485Z,27.37
2023-01-20T09:34:31.215Z,30.47
2023-01-20T09:37:21.809Z,31.70
2023-01-20T09:40:08.384Z,32.03
2023-01-20T09:43:41.786Z,36.27
2023-01-20T09:46:43.613Z,32.20
2023-01-20T09:50:17.751Z,27.93
2023-01-20T09:53:04.374Z,26.90
2023-01-20T09:55:53.460Z,30.63
2023-01-20T09:59:11.060Z,29.13
2023-01-20T10:02:05.929Z,28.27
2023-01-20T10:04:54.950Z,32.20
2023-01-20T10:07:51.407Z,29.87
2023-01-20T10:10:36.607Z,33.20
2023-01-20T10:13:51.525Z,27.40
2023-01-20T10:16:54.768Z,32.53
2023-01-20T10:19:42.589Z,29.57
2023-01-20T10:22:41.909Z,33.37
2023-01-20T10:25:50.241Z,35.60
2023-01-20T10:28:41.723Z,37.17
2023-01-20T10:31:15.516Z,35.17
2023-01-20T10:33:46.087Z,26.57
2023-01-20T10:36:30.087Z,34.73
2023-01-20T10:39:40.747Z,26.40
2023-01-20T10:42:19.420Z,28.97
2023-01-20T10:44:52.725Z,29.30
2023-01-20T10:47:48.345Z,26.80
2023-01-20T10:51:14.892Z,34.40
2023-01-20T10:54:11.630Z,30.50
2023-01-20T10:56:53.960Z,28.47
2023-01-20T10:59:34.867Z,29.40
2023-01-20T11:02:28.384Z,29.67
2023-01-20T11:05:18.234Z,34.50
2023-01-20T11:07:49.409Z,30.87
2023-01-20T11:10:30.074Z,27.00
2023-01-20T11:13:02.806Z,29.50
2023-01-20T11:15:49.967Z,26.93
2023-01-20T11:18:17.683Z,26.30
2023-01-20T11:21:11.963Z,25.37
2023-01-20T11:23:57.557Z,29.90
2023-01-20T11:26:37.301Z,25.80
2023-01-20T11:29:10.782Z,28.40
2023-01-20T11:31:54.610Z,27.57
2023-01-20T11:34:36.461Z,36.13
2023-01-20T11:37:07.127Z,26.83
2023-01-20T11:40:01.612Z,31.63
2023-01-20T11:42:52.203Z,33.53
2023-01-20T11:45:37.595Z,27.93
2023-01-20T11:48:16.469Z,31.00
2023-01-20T11:51:03.403Z,29.17
2023-01-20T11:53:34.396Z,27.67
2023-01-20T11:56:26.498Z,33.03
2023-01-20T11:59:03.221Z,30.53
2023-01-20T12:02:27.487Z,35.00
2023-01-20T12:05:55.052Z,28.93
2023-01-20T12:09:22.605Z,26.17
2023-01-20T12:12:14.416Z,26.50
2023-01-20T12:15:39.538Z,24.60
2023-01-20T12:19:01.203Z,24.53
2023-01-20T12:21:47.983Z,19.13
2023-01-20T12:25:07.008Z,25.93
2023-01-20T12:27:51.537Z,24.80
2023-01-20T12:31:04.848Z,20.83
2023-01-20T12:33:47.597Z,20.90
2023-01-20T12:36:57.133Z,23.37
2023-01-20T12:39:48.720Z,25.37
2023-01-20T12:43:17.705Z,21.20
2023-01-20T12:46:33.622Z,23.90
2023-01-20T12:50:19.386Z,19.63
2023-01-20T12:53:45.253Z,18.57
2023-01-20T12:56:45.073Z,24.30
2023-01-20T13:00:20.837Z,22.00
2023-01-20T13:03:58.740Z,18.37
2023-01-20T13:07:01.430Z,18.00
2023-01-20T13:10:50.936Z,21.60
2023-01-20T13:14:29.253Z,19.97
2023-01-20T13:17:26.870Z,17.07
2023-01-20T13:20:04.884Z,15.93
2023-01-20T13:22:34.636Z,17.57
2023-01-20T13:25:05.019Z,18.57
2023-01-20T13:27:38.741Z,17.83
2023-01-20T13:30:40.382Z,17.50
2023-01-20T13:33:40.871Z,16.10
2023-01-20T13:36:23.803Z,17.30
2023-01-20T13:39:40.694Z,16.53
2023-01-20T13:42:39.366Z,14.20
2023-01-20T13:45:13.430Z,12.97
2023-01-20T13:48:08.392Z,15.20
2023-01-20T13:50:43.232Z,17.60
2023-01-20T13:53:10.859Z,18.43
2023-01-20T13:55:47.415Z,13.90
2023-01-20T13:58:35.961Z,14.93
2023-01-20T14:01:15.130Z,20.80
2023-01-20T14:03:43.722Z,14.47
2023-01-20T14:06:13.297Z,23.63
2023-01-20T14:08:51.496Z,18.10
2023-01-20T14:11:27.161Z,19.93
2023-01-20T14:14:08.237Z,26.23
2023-01-20T14:16:36.032Z,12.87
2023-01-20T14:19:36.306Z,8.40
2023-01-20T14:22:30.194Z,9.60
2023-01-20T14:25:01.940Z,9.20
2023-01-20T14:27:42.144Z,8.27
2023-01-20T14:30:27.609Z,10.50
2023-01-20T14:32:55.575Z,8.63
2023-01-20T14:35:34.485Z,15.10
2023-01-20T14:38:03.359Z,12.93
2023-01-20T14:40:40.423Z,13.63
2023-01-20T14:43:22.785Z,11.23
2023-01-20T14:45:53.175Z,13.23
2023-01-20T14:48:34.650Z,10.60
2023-01-20T14:51:06.043Z,9.37
2023-01-20T14:53:34.317Z,18.53
2023-01-20T14:56:08.337Z,10.80
2023-01-20T14:58:45.539Z,11.50
2023-01-20T15:01:26.933Z,17.20
2023-01-20T15:04:12.785Z,11.90
2023-01-20T15:06:40.930Z,13.83
2023-01-20T15:09:35.629Z,14.17
2023-01-20T15:12:48.130Z,14.90
2023-01-20T15:15:31.852Z,10.80
2023-01-20T15:18:23.405Z,15.90
2023-01-20T15:21:15.665Z,16.93
2023-01-20T15:23:45.940Z,13.67
2023-01-20T15:26:31.960Z,14.70
2023-01-20T15:28:59.849Z,19.50
2023-01-20T15:31:27.736Z,14.30
2023-01-20T15:33:55.418Z,15.40
2023-01-20T15:36:40.273Z,14.27
2023-01-20T15:39:19.037Z,17.13
2023-01-20T15:41:53.950Z,16.37
2023-01-20T15:44:26.574Z,16.70
2023-01-20T15:46:57.639Z,15.13
2023-01-20T15:49:25.895Z,16.97
2023-01-20T15:51:53.933Z,14.77
2023-01-20T15:54:22.076Z,15.07
2023-01-20T15:56:49.940Z,13.67
2023-01-20T15:59:21.228Z,11.23
2023-01-20T16:01:52.351Z,11.03
2023-01-20T16:04:20.973Z,14.30
2023-01-20T16:06:48.843Z,15.03
2023-01-20T16:09:29.890Z,12.30
2023-01-20T16:11:57.884Z,12.60
2023-01-20T16:14:25.523Z,14.20
2023-01-20T16:16:53.129Z,14.20
2023-01-20T16:19:21.039Z,14.93
2023-01-20T16:21:48.635Z,13.27
2023-01-20T16:24:16.328Z,14.80
2023-01-20T16:26:47.762Z,17.00
2023-01-20T16:29:15.586Z,17.30
2023-01-20T16:31:44.328Z,23.90
2023-01-20T16:34:12.504Z,20.33
2023-01-20T16:36:40.511Z,24.60
2023-01-20T16:39:08.207Z,21.67
2023-01-20T16:41:37.868Z,22.33
2023-01-20T16:44:05.825Z,24.47
2023-01-20T16:46:33.679Z,20.07
2023-01-20T16:49:03.025Z,30.03
2023-01-20T16:51:32.749Z,20.37
2023-01-20T16:54:00.881Z,29.00
2023-01-20T16:56:33.309Z,26.30
2023-01-20T16:59:03.223Z,30.13
2023-01-20T17:01:32.160Z,27.40
2023-01-20T17:04:03.718Z,17.93
2023-01-20T17:06:36.515Z,34.27
2023-01-20T17:09:06.010Z,34.90
2023-01-20T17:11:39.129Z,24.23
2023-01-20T17:14:11.715Z,20.80
2023-01-20T17:16:40.262Z,18.60
2023-01-20T17:19:08.186Z,27.63
2023-01-20T17:21:39.743Z,21.63
2023-01-20T17:24:08.353Z,27.10
2023-01-20T17:26:37.856Z,22.13
2023-01-20T17:29:07.176Z,22.07
2023-01-20T17:31:37.109Z,21.33
2023-01-20T17:34:07.566Z,18.10
2023-01-20T17:36:35.524Z,23.27
2023-01-20T17:39:06.061Z,24.67
2023-01-20T17:41:35.205Z,20.07
2023-01-20T17:44:04.246Z,26.63
2023-01-20T17:46:32.993Z,21.77
2023-01-20T17:49:04.870Z,23.27
2023-01-20T17:51:32.872Z,22.13
2023-01-20T17:54:03.805Z,22.10
2023-01-20T17:56:32.631Z,24.37
2023-01-20T17:59:00.388Z,22.93
2023-01-20T18:01:33.109Z,25.03
2023-01-20T18:04:04.421Z,26.03
2023-01-20T18:06:36.496Z,19.43
2023-01-20T18:09:07.843Z,19.73
2023-01-20T18:11:37.743Z,26.30
2023-01-20T18:14:10.312Z,23.00
2023-01-20T18:16:41.832Z,21.63
2023-01-20T18:19:14.670Z,24.87
2023-01-20T18:21:52.058Z,28.90
2023-01-20T18:24:21.766Z,22.87
2023-01-20T18:26:49.691Z,26.87
2023-01-20T18:29:19.512Z,22.03
2023-01-20T18:31:50.501Z,24.97
2023-01-20T18:34:18.445Z,20.20
2023-01-20T18:36:48.572Z,24.63
2023-01-20T18:39:24.847Z,23.10
2023-01-20T18:41:52.961Z,23.33
2023-01-20T18:44:23.315Z,26.57
2023-01-20T18:46:51.160Z,25.10
2023-01-20T18:49:19.495Z,24.53
2023-01-20T18:51:47.488Z,26.80
2023-01-20T18:54:21.030Z,27.57
2023-01-20T18:56:54.476Z,28.90
2023-01-20T18:59:25.123Z,26.93
2023-01-20T19:01:55.519Z,26.87
2023-01-20T19:04:23.280Z,27.77
2023-01-20T19:06:50.983Z,28.23
2023-01-20T19:09:19.785Z,27.37
2023-01-20T19:11:47.588Z,34.43
2023-01-20T19:14:16.193Z,30.60
2023-01-20T19:16:49.509Z,29.63
2023-01-20T19:19:19.350Z,30.10
2023-01-20T19:21:52.402Z,29.83
2023-01-20T19:24:22.530Z,30.17
2023-01-20T19:26:50.736Z,33.10
2023-01-20T19:29:19.469Z,27.57
2023-01-20T19:31:52.454Z,35.27
2023-01-20T19:34:20.390Z,28.73
2023-01-20T19:36:48.323Z,31.77
2023-01-20T19:39:17.019Z,31.80
2023-01-20T19:41:44.873Z,34.03
2023-01-20T19:44:13.904Z,30.10
2023-01-20T19:46:42.080Z,26.70
2023-01-20T19:49:12.876Z,33.97
2023-01-20T19:51:40.870Z,33.90
2023-01-20T19:54:13.307Z,29.50
2023-01-20T19:56:41.899Z,30.97
2023-01-20T19:59:14.275Z,34.40
2023-01-20T20:01:42.282Z,35.20
2023-01-20T20:04:14.089Z,33.97
2023-01-20T20:06:48.394Z,29.40
2023-01-20T20:09:23.534Z,31.63
2023-01-20T20:11:52.581Z,39.00
2023-01-20T20:14:23.259Z,35.80
2023-01-20T20:16:51.530Z,35.07
2023-01-20T20:19:20.891Z,37.70
2023-01-20T20:21:49.471Z,29.40
2023-01-20T20:24:18.967Z,41.17
2023-01-20T20:26:48.151Z,36.10
2023-01-20T20:29:19.998Z,38.10
2023-01-20T20:31:48.167Z,28.97
2023-01-20T20:34:19.617Z,32.47
2023-01-20T20:36:48.333Z,35.50
2023-01-20T20:39:19.851Z,33.00
2023-01-20T20:41:47.835Z,36.67
2023-01-20T20:44:16.055Z,33.53
2023-01-20T20:46:43.988Z,31.07
2023-01-20T20:49:17.073Z,38.37
2023-01-20T20:51:46.098Z,39.67
2023-01-20T20:54:17.739Z,36.27
2023-01-20T20:57:02.100Z,35.80
2023-01-20T20:59:31.727Z,37.57
2023-01-20T21:01:59.467Z,38.03
2023-01-20T21:04:27.363Z,37.60
2023-01-20T21:06:56.009Z,39.47
2023-01-20T21:09:23.886Z,35.87
2023-01-20T21:11:51.618Z,33.13
2023-01-20T21:14:22.369Z,35.50
2023-01-20T21:16:50.891Z,34.60
2023-01-20T21:19:18.788Z,32.83
2023-01-20T21:21:46.749Z,39.80
2023-01-20T21:24:14.819Z,35.10
2023-01-20T21:26:43.227Z,38.93
2023-01-20T21:29:12.319Z,45.37
2023-01-20T21:31:40.346Z,31.03
2023-01-20T21:34:12.804Z,37.50
2023-01-20T21:36:44.293Z,37.90
2023-01-20T21:39:20.279Z,45.63
2023-01-20T21:41:48.195Z,28.63
2023-01-20T21:44:28.598Z,37.03
2023-01-20T21:47:11.598Z,31.97
2023-01-20T21:49:58.063Z,42.00
2023-01-20T21:52:41.681Z,36.27
2023-01-20T21:55:21.126Z,38.40
2023-01-20T21:57:51.539Z,38.67
2023-01-20T22:00:20.576Z,33.90
2023-01-20T22:02:49.128Z,36.70
2023-01-20T22:05:17.910Z,42.37
2023-01-20T22:07:48.048Z,40.37
2023-01-20T22:10:16.739Z,46.40
2023-01-20T22:12:44.886Z,34.50
2023-01-20T22:15:13.642Z,47.27
2023-01-20T22:17:41.638Z,41.47
2023-01-20T22:20:11.183Z,41.97
2023-01-20T22:22:43.862Z,38.40
2023-01-20T22:25:13.321Z,36.63
2023-01-20T22:27:42.630Z,36.50
2023-01-20T22:30:15.976Z,35.23
2023-01-20T22:32:45.174Z,39.30
2023-01-20T22:35:23.680Z,32.70
2023-01-20T22:37:55.337Z,36.20
2023-01-20T22:40:23.950Z,44.27
2023-01-20T22:42:52.053Z,39.00
2023-01-20T22:45:22.931Z,37.30
2023-01-20T22:47:56.786Z,44.60
2023-01-20T22:50:29.202Z,40.13
2023-01-20T22:52:58.308Z,44.73
2023-01-20T22:55:27.145Z,35.87
2023-01-20T22:57:55.291Z,38.93
2023-01-20T23:00:24.262Z,45.73
2023-01-20T23:02:52.773Z,32.57
2023-01-20T23:05:21.485Z,39.80
2023-01-20T23:07:50.580Z,36.50
2023-01-20T23:10:37.707Z,40.27
2023-01-20T23:13:05.650Z,34.77
2023-01-20T23:15:33.416Z,38.57
2023-01-20T23:18:01.116Z,42.37
2023-01-20T23:20:29.200Z,43.63
2023-01-20T23:22:57.015Z,41.50
2023-01-20T23:25:25.104Z,38.90
2023-01-20T23:27:53.002Z,37.23
2023-01-20T23:30:21.024Z,42.00
2023-01-20T23:32:48.887Z,42.30
2023-01-20T23:35:16.657Z,43.63
2023-01-20T23:37:44.686Z,41.47
2023-01-20T23:40:13.469Z,44.40
2023-01-20T23:42:41.648Z,36.87
2023-01-20T23:45:10.394Z,38.57
2023-01-20T23:47:38.351Z,41.83
2023-01-20T23:50:07.296Z,40.70
2023-01-20T23:52:35.042Z,46.77
2023-01-20T23:55:02.847Z,40.23
2023-01-20T23:57:30.765Z,41.67
2023-01-20T23:59:58.667Z,50.67
